Time;durP1;ratioP1;P1;durP2;ratioP2;P2;SDS_P1;SDS_P2;PMS_P1;PMS_P2;Temp;Humidity;BMP_temperature;BMP_pressure;BME280_temperature;BME280_humidity;BME280_pressure;Samples;Min_cycle;Max_cycle;Signal;HPM_P1;HPM_P2
2022/07/26 00:01:21;;;;;;;7.25;2.13;;;18.70;99.90;;;;;;4995649;28;20042;-83
2022/07/26 00:03:48;;;;;;;11.77;1.90;;;18.70;99.90;;;;;;4995514;28;20053;-82
2022/07/26 00:06:15;;;;;;;10.05;1.98;;;18.60;99.90;;;;;;4995549;28;20129;-84
2022/07/26 00:08:41;;;;;;;7.95;1.88;;;18.60;99.90;;;;;;4995492;28;20038;-81
2022/07/26 00:11:06;;;;;;;10.38;1.65;;;18.60;99.90;;;;;;4995948;28;20500;-84
2022/07/26 00:13:32;;;;;;;9.75;1.63;;;18.60;99.90;;;;;;4995377;28;20078;-83
2022/07/26 00:15:58;;;;;;;9.55;1.40;;;18.50;99.90;;;;;;4994439;28;20368;-82
2022/07/26 00:18:24;;;;;;;8.38;1.60;;;18.60;99.90;;;;;;4995299;28;20054;-84
2022/07/26 00:20:50;;;;;;;9.73;1.73;;;18.60;99.90;;;;;;4996353;28;20046;-83
2022/07/26 00:23:15;;;;;;;7.65;1.52;;;18.60;99.90;;;;;;4995698;28;20053;-83
2022/07/26 00:25:41;;;;;;;6.22;1.60;;;18.60;99.90;;;;;;4994482;28;20052;-83
2022/07/26 00:28:07;;;;;;;7.60;1.70;;;18.60;99.90;;;;;;4995383;28;20052;-82
2022/07/26 00:30:33;;;;;;;8.73;1.75;;;18.60;99.90;;;;;;4995063;28;20471;-81
2022/07/26 00:32:59;;;;;;;11.20;1.48;;;18.70;99.90;;;;;;4995077;28;20054;-81
2022/07/26 00:35:24;;;;;;;5.85;2.13;;;18.70;99.90;;;;;;4994306;28;20105;-82
2022/07/26 00:37:50;;;;;;;10.48;1.52;;;18.70;99.90;;;;;;4994942;28;20096;-82
2022/07/26 00:40:16;;;;;;;7.25;1.70;;;18.70;99.90;;;;;;4995675;28;20129;-82
2022/07/26 00:42:42;;;;;;;12.13;2.17;;;18.70;99.90;;;;;;4993601;28;20462;-83
2022/07/26 00:45:09;;;;;;;7.97;1.95;;;18.70;99.90;;;;;;4993579;28;20441;-82
2022/07/26 00:47:35;;;;;;;11.43;1.70;;;18.70;99.90;;;;;;4994749;28;20096;-82
2022/07/26 00:50:02;;;;;;;10.52;1.90;;;18.70;99.90;;;;;;4995484;28;20129;-81
2022/07/26 00:52:27;;;;;;;10.10;1.77;;;18.70;99.90;;;;;;4994678;28;20140;-82
2022/07/26 00:54:54;;;;;;;7.90;1.80;;;18.70;99.90;;;;;;4994611;28;20095;-82
2022/07/26 00:57:24;;;;;;;8.25;1.40;;;18.70;99.90;;;;;;4993711;28;20058;-83
2022/07/26 00:59:50;;;;;;;6.07;1.98;;;18.70;99.90;;;;;;4994673;28;20043;-82
2022/07/26 01:02:17;;;;;;;11.00;1.88;;;18.70;99.90;;;;;;4995320;28;20053;-79
2022/07/26 01:04:43;;;;;;;7.32;2.00;;;18.70;99.90;;;;;;4994465;28;20046;-83
2022/07/26 01:07:09;;;;;;;9.23;1.80;;;18.70;99.90;;;;;;4993779;28;20059;-84
2022/07/26 01:09:36;;;;;;;8.60;1.45;;;18.70;99.90;;;;;;4994438;28;20046;-84
2022/07/26 01:12:02;;;;;;;8.43;1.50;;;18.80;99.90;;;;;;4994182;28;20046;-84
2022/07/26 01:14:28;;;;;;;10.40;2.00;;;18.80;99.90;;;;;;4994953;28;20136;-83
2022/07/26 01:16:54;;;;;;;6.30;1.98;;;18.70;99.90;;;;;;4994885;28;20057;-82
2022/07/26 01:19:20;;;;;;;6.97;1.50;;;18.80;99.90;;;;;;4994135;28;20046;-83
2022/07/26 01:21:47;;;;;;;11.95;1.80;;;18.80;99.90;;;;;;4993395;28;20058;-83
2022/07/26 01:24:13;;;;;;;10.20;1.80;;;18.80;99.90;;;;;;4994338;28;20061;-80
2022/07/26 01:26:38;;;;;;;7.15;1.73;;;18.80;99.90;;;;;;4994315;28;20046;-81
2022/07/26 01:29:05;;;;;;;8.75;1.52;;;18.80;99.90;;;;;;4992686;28;20093;-83
2022/07/26 01:31:30;;;;;;;11.35;2.00;;;18.80;99.90;;;;;;4993102;28;20057;-84
2022/07/26 01:33:56;;;;;;;8.23;1.52;;;18.80;99.90;;;;;;4993403;28;20054;-80
2022/07/26 01:36:22;;;;;;;6.55;1.52;;;18.80;99.90;;;;;;4994104;28;20049;-80
2022/07/26 01:38:48;;;;;;;8.10;1.70;;;18.80;99.90;;;;;;4994112;28;20101;-82
2022/07/26 01:41:14;;;;;;;9.05;1.50;;;18.80;99.90;;;;;;4994836;28;20058;-84
2022/07/26 01:43:40;;;;;;;5.70;1.70;;;18.80;99.90;;;;;;4981085;28;20042;-85
2022/07/26 01:46:07;;;;;;;6.47;1.83;;;18.80;99.90;;;;;;4998605;28;20097;-80
2022/07/26 01:48:33;;;;;;;9.85;1.90;;;18.80;99.90;;;;;;4998058;28;20050;-82
2022/07/26 01:51:00;;;;;;;8.20;1.98;;;18.80;99.90;;;;;;4997476;28;20054;-81
2022/07/26 01:53:26;;;;;;;7.85;1.50;;;18.80;99.90;;;;;;4996824;28;20076;-83
2022/07/26 01:55:52;;;;;;;6.28;1.63;;;18.70;99.90;;;;;;4997003;28;20059;-82
2022/07/26 01:58:17;;;;;;;6.28;1.90;;;18.70;99.90;;;;;;4997049;28;20088;-83
2022/07/26 02:00:43;;;;;;;6.40;1.50;;;18.70;99.90;;;;;;4981271;28;20478;-83
2022/07/26 02:03:09;;;;;;;8.43;1.75;;;18.70;99.90;;;;;;4996749;28;20043;-81
2022/07/26 02:05:34;;;;;;;6.40;1.70;;;18.70;99.90;;;;;;4996628;28;20100;-83
2022/07/26 02:08:00;;;;;;;7.20;1.42;;;18.70;99.90;;;;;;4996763;28;20050;-82
2022/07/26 02:10:59;;;;;;;7.97;1.98;;;18.70;99.90;;;;;;4997582;28;20045;-82
2022/07/26 02:13:14;;;;;;;5.88;1.73;;;18.70;99.90;;;;;;4997908;28;20104;-85
2022/07/26 02:15:40;;;;;;;10.73;2.35;;;18.70;99.90;;;;;;4997632;28;20096;-83
2022/07/26 02:18:06;;;;;;;7.60;1.80;;;18.60;99.90;;;;;;4980567;28;20050;-82
2022/07/26 02:20:32;;;;;;;7.20;1.77;;;18.60;99.90;;;;;;4997488;28;20039;-81
2022/07/26 02:23:00;;;;;;;6.13;1.35;;;18.60;99.90;;;;;;4997299;28;20065;-82
2022/07/26 02:25:26;;;;;;;8.85;1.92;;;18.60;99.90;;;;;;4996749;28;20431;-83
2022/07/26 02:27:52;;;;;;;6.38;1.70;;;18.60;99.90;;;;;;4997282;28;20148;-83
2022/07/26 02:30:17;;;;;;;7.18;1.42;;;18.60;99.90;;;;;;4964042;28;20056;-82
2022/07/26 02:32:43;;;;;;;7.05;1.88;;;18.60;99.90;;;;;;4979839;28;20053;-82
2022/07/26 02:35:24;;;;;;;5.97;1.85;;;18.50;99.90;;;;;;4975075;28;20124;-82
2022/07/26 02:37:50;;;;;;;7.80;2.20;;;18.50;99.90;;;;;;4996032;28;20086;-82
2022/07/26 02:40:15;;;;;;;5.50;1.70;;;18.50;99.90;;;;;;4997709;28;20046;-82
2022/07/26 02:42:41;;;;;;;6.88;1.40;;;18.50;99.90;;;;;;4997056;28;20171;-84
2022/07/26 02:45:07;;;;;;;6.88;1.55;;;18.50;99.90;;;;;;4996391;28;20042;-83
2022/07/26 02:47:33;;;;;;;6.93;1.60;;;18.50;99.90;;;;;;4996127;28;20054;-84
2022/07/26 02:49:59;;;;;;;6.40;1.60;;;18.50;99.90;;;;;;4996929;28;20050;-83
2022/07/26 02:52:24;;;;;;;7.00;1.77;;;18.50;99.90;;;;;;4995679;28;20093;-82
2022/07/26 02:54:50;;;;;;;4.78;1.35;;;18.50;99.90;;;;;;4995948;28;20051;-82
2022/07/26 02:57:16;;;;;;;6.40;1.75;;;18.50;99.90;;;;;;4979603;28;20050;-83
2022/07/26 02:59:41;;;;;;;4.70;1.80;;;18.50;99.90;;;;;;4995876;28;20093;-80
2022/07/26 03:02:07;;;;;;;6.40;1.75;;;18.50;99.90;;;;;;4996605;28;20529;-83
2022/07/26 03:04:33;;;;;;;6.65;2.17;;;18.40;99.90;;;;;;4996498;28;20141;-86
2022/07/26 03:06:58;;;;;;;5.90;1.50;;;18.40;99.90;;;;;;4979578;28;20038;-89
2022/07/26 03:09:24;;;;;;;5.25;2.45;;;18.30;99.90;;;;;;4979254;28;20123;-82
2022/07/26 03:11:50;;;;;;;5.57;1.50;;;18.20;99.90;;;;;;4963310;28;20486;-83
2022/07/26 03:14:16;;;;;;;3.58;1.20;;;18.00;99.90;;;;;;4996638;28;20495;-88
2022/07/26 03:16:41;;;;;;;5.10;2.15;;;17.90;99.90;;;;;;4995583;28;20501;-83
2022/07/26 03:19:07;;;;;;;5.07;1.50;;;17.80;99.90;;;;;;4996083;28;20054;-85
2022/07/26 03:21:33;;;;;;;5.15;1.95;;;17.70;99.90;;;;;;4996973;28;20069;-88
2022/07/26 03:23:58;;;;;;;6.22;2.13;;;17.60;99.90;;;;;;4995465;28;20046;-85
2022/07/26 03:26:24;;;;;;;4.35;1.60;;;17.60;99.90;;;;;;4996344;28;20081;-82
2022/07/26 03:28:50;;;;;;;5.38;1.77;;;17.50;99.90;;;;;;4994999;28;20077;-84
2022/07/26 03:31:15;;;;;;;5.45;1.55;;;17.50;99.90;;;;;;4996272;28;20054;-83
2022/07/26 03:33:41;;;;;;;2.28;1.40;;;17.50;99.90;;;;;;4994957;28;20128;-82
2022/07/26 03:36:09;;;;;;;4.15;1.77;;;17.50;99.90;;;;;;4996151;28;20044;-82
2022/07/26 03:38:35;;;;;;;6.75;1.60;;;17.50;99.90;;;;;;4996997;28;20378;-83
2022/07/26 03:41:01;;;;;;;6.43;1.58;;;17.50;99.90;;;;;;4994950;28;20112;-83
2022/07/26 03:43:27;;;;;;;2.60;1.40;;;17.40;99.90;;;;;;4995040;28;20047;-86
2022/07/26 03:45:53;;;;;;;4.25;1.15;;;17.40;99.90;;;;;;4995581;28;20382;-89
2022/07/26 03:48:19;;;;;;;6.07;1.23;;;17.40;99.90;;;;;;4994748;28;20085;-84
2022/07/26 03:50:44;;;;;;;4.05;1.10;;;17.40;99.90;;;;;;4994660;28;20047;-84
2022/07/26 03:53:10;;;;;;;6.95;1.40;;;17.30;99.90;;;;;;4995865;28;20379;-86
2022/07/26 03:58:20;;;;;;;5.07;1.30;;;17.30;99.90;;;;;;4981877;28;20054;-84
2022/07/26 04:00:46;;;;;;;6.60;1.20;;;17.30;99.90;;;;;;4995803;28;20034;-84
2022/07/26 04:03:12;;;;;;;5.25;1.30;;;17.30;99.90;;;;;;4994191;28;20104;-85
2022/07/26 04:05:37;;;;;;;4.35;1.10;;;17.30;99.90;;;;;;4995272;28;20560;-85
2022/07/26 04:08:03;;;;;;;7.18;1.20;;;17.30;99.90;;;;;;4996127;28;20053;-83
2022/07/26 04:10:29;;;;;;;6.18;1.08;;;17.30;99.90;;;;;;4995471;28;20478;-85
2022/07/26 04:12:55;;;;;;;5.78;1.02;;;17.30;99.90;;;;;;4994539;28;20042;-83
2022/07/26 04:15:20;;;;;;;5.90;1.20;;;17.30;99.90;;;;;;4978538;28;20486;-83
2022/07/26 04:17:47;;;;;;;5.53;0.80;;;17.30;99.90;;;;;;4994236;28;20061;-83
2022/07/26 04:20:13;;;;;;;3.20;0.80;;;17.20;99.90;;;;;;4994366;28;20078;-83
2022/07/26 04:22:40;;;;;;;5.50;1.00;;;17.20;99.90;;;;;;4996082;28;20437;-84
2022/07/26 04:25:07;;;;;;;6.78;0.77;;;17.20;99.90;;;;;;4996120;28;20111;-83
2022/07/26 04:27:34;;;;;;;4.88;0.80;;;17.20;99.90;;;;;;4995203;28;20054;-81
2022/07/26 04:30:00;;;;;;;8.07;0.80;;;17.20;99.90;;;;;;4995679;28;20430;-83
2022/07/26 04:32:26;;;;;;;4.82;0.68;;;17.20;99.90;;;;;;4995910;28;20065;-83
2022/07/26 04:34:51;;;;;;;6.68;0.98;;;17.10;99.90;;;;;;4995562;28;20470;-83
2022/07/26 04:37:17;;;;;;;3.13;0.60;;;17.10;99.90;;;;;;4994990;28;20418;-83
2022/07/26 04:39:43;;;;;;;3.38;0.52;;;17.10;99.90;;;;;;4993943;28;20046;-83
2022/07/26 04:42:10;;;;;;;2.17;0.52;;;17.10;99.90;;;;;;4993988;28;20049;-83
2022/07/26 04:44:36;;;;;;;4.15;0.50;;;17.10;99.90;;;;;;4994964;28;20038;-85
2022/07/26 04:47:02;;;;;;;3.25;0.50;;;17.20;99.90;;;;;;4993845;28;20459;-84
2022/07/26 04:49:28;;;;;;;4.13;0.50;;;17.10;99.90;;;;;;4994851;28;20046;-83
2022/07/26 04:51:53;;;;;;;4.20;0.40;;;17.10;99.90;;;;;;4961764;28;20129;-83
2022/07/26 04:54:21;;;;;;;4.03;0.70;;;17.10;99.90;;;;;;4977923;28;20065;-82
2022/07/26 04:56:47;;;;;;;6.38;0.60;;;17.10;99.90;;;;;;4994727;28;20046;-83
2022/07/26 04:59:14;;;;;;;4.03;0.63;;;17.10;99.90;;;;;;4995263;28;20046;-84
2022/07/26 05:01:40;;;;;;;3.03;0.40;;;17.10;99.90;;;;;;4994525;28;20046;-84
2022/07/26 05:04:05;;;;;;;2.60;0.40;;;17.10;99.90;;;;;;4994887;28;20053;-83
2022/07/26 05:06:31;;;;;;;6.20;0.50;;;17.10;99.90;;;;;;4994418;28;20101;-84
2022/07/26 05:08:57;;;;;;;1.98;0.40;;;17.10;99.90;;;;;;4994453;28;20065;-84
2022/07/26 05:11:23;;;;;;;1.35;0.40;;;17.10;99.90;;;;;;4993613;28;20097;-84
2022/07/26 05:13:49;;;;;;;3.90;0.50;;;17.10;99.90;;;;;;4994459;28;20137;-85
2022/07/26 05:16:15;;;;;;;3.75;0.40;;;17.10;99.90;;;;;;4993691;28;20082;-84
2022/07/26 05:18:41;;;;;;;5.93;0.70;;;17.10;99.90;;;;;;4994939;28;20050;-83
2022/07/26 05:21:06;;;;;;;2.63;0.95;;;17.10;99.90;;;;;;4994424;28;20071;-85
2022/07/26 05:23:32;;;;;;;4.13;0.40;;;17.10;99.90;;;;;;4994266;28;20050;-74
2022/07/26 05:25:58;;;;;;;1.60;0.40;;;17.00;99.90;;;;;;4994849;28;20425;-74
2022/07/26 05:28:23;;;;;;;4.32;0.40;;;17.00;99.90;;;;;;4994850;28;20135;-80
2022/07/26 05:30:49;;;;;;;1.90;0.50;;;17.00;99.90;;;;;;4994730;28;20046;-80
2022/07/26 05:33:15;;;;;;;6.18;0.40;;;16.90;99.90;;;;;;4994083;28;20042;-82
2022/07/26 05:35:40;;;;;;;4.10;0.30;;;16.90;99.90;;;;;;4994725;28;20046;-81
2022/07/26 05:38:06;;;;;;;2.95;0.40;;;16.90;99.90;;;;;;4994001;28;20489;-82
2022/07/26 05:40:32;;;;;;;2.63;0.30;;;16.80;99.90;;;;;;4992975;28;20042;-83
2022/07/26 05:42:57;;;;;;;1.90;0.30;;;16.70;99.90;;;;;;4994111;28;20050;-82
2022/07/26 05:45:23;;;;;;;5.70;0.40;;;16.70;99.90;;;;;;4993771;28;20193;-83
2022/07/26 05:47:50;;;;;;;2.50;0.65;;;16.70;99.90;;;;;;4976998;28;20053;-81
2022/07/26 05:50:16;;;;;;;1.67;0.30;;;16.70;99.90;;;;;;4993606;28;20042;-82
2022/07/26 05:52:41;;;;;;;1.92;0.50;;;16.80;99.90;;;;;;4977013;28;20441;-83
2022/07/26 05:55:07;;;;;;;2.92;0.45;;;16.80;99.90;;;;;;4994572;28;20104;-82
2022/07/26 05:57:33;;;;;;;2.72;0.40;;;16.80;99.90;;;;;;4993947;28;20054;-83
2022/07/26 05:59:59;;;;;;;2.25;0.40;;;16.80;99.90;;;;;;4993581;28;20073;-84
2022/07/26 06:02:24;;;;;;;1.85;0.60;;;16.90;99.90;;;;;;4994554;28;20434;-84
2022/07/26 06:04:50;;;;;;;2.08;0.40;;;16.90;99.90;;;;;;4992890;28;20145;-83
2022/07/26 06:07:16;;;;;;;1.73;0.30;;;17.00;99.90;;;;;;4992979;28;20055;-80
2022/07/26 06:09:42;;;;;;;2.55;0.40;;;16.90;99.90;;;;;;4994152;28;20038;-87
2022/07/26 06:12:08;;;;;;;3.05;0.40;;;16.80;99.90;;;;;;4992657;28;20130;-84
2022/07/26 06:14:34;;;;;;;2.05;0.40;;;16.80;99.90;;;;;;4993881;28;20086;-87
2022/07/26 06:17:01;;;;;;;3.03;0.40;;;16.70;99.90;;;;;;4994369;28;20061;-85
2022/07/26 06:19:27;;;;;;;1.98;0.32;;;16.60;99.90;;;;;;4994712;28;20410;-91
2022/07/26 06:21:52;;;;;;;2.40;0.50;;;16.60;99.90;;;;;;4976658;28;20050;-88
2022/07/26 06:24:18;;;;;;;2.85;0.52;;;16.50;99.90;;;;;;4993796;28;20053;-89
2022/07/26 06:26:45;;;;;;;3.53;1.38;;;16.50;99.90;;;;;;4993486;28;20062;-87
2022/07/26 06:29:11;;;;;;;2.97;0.57;;;16.60;99.90;;;;;;4997750;28;20101;-85
2022/07/26 06:31:37;;;;;;;2.70;0.43;;;16.60;99.90;;;;;;4997388;28;20045;-86
2022/07/26 06:34:02;;;;;;;2.22;0.40;;;16.70;99.90;;;;;;4998087;28;20043;-89
2022/07/26 06:36:28;;;;;;;4.93;0.45;;;16.70;99.90;;;;;;4980213;28;20372;-88
2022/07/26 06:38:54;;;;;;;3.20;0.50;;;16.60;99.90;;;;;;4998034;28;20065;-87
2022/07/26 06:41:19;;;;;;;4.65;0.40;;;16.60;99.90;;;;;;4997856;28;20057;-88
2022/07/26 06:43:45;;;;;;;4.00;0.40;;;16.70;99.90;;;;;;4997656;28;20050;-87
2022/07/26 06:46:11;;;;;;;5.00;0.50;;;16.70;99.90;;;;;;4996932;28;20054;-89
2022/07/26 06:48:36;;;;;;;0.98;0.30;;;16.70;99.90;;;;;;4996025;28;20054;-90
2022/07/26 06:51:03;;;;;;;1.92;0.30;;;16.80;99.90;;;;;;4996529;28;20054;-89
2022/07/26 06:53:29;;;;;;;3.22;0.43;;;16.80;99.90;;;;;;4996234;28;20463;-88
2022/07/26 06:55:55;;;;;;;3.85;0.50;;;16.90;99.90;;;;;;4996984;28;20045;-92
2022/07/26 06:58:21;;;;;;;3.53;0.50;;;16.90;99.90;;;;;;4996042;28;20038;-91
2022/07/26 07:00:46;;;;;;;2.55;0.40;;;16.80;99.90;;;;;;4979995;28;20042;-87
2022/07/26 07:03:12;;;;;;;4.25;0.70;;;16.90;99.90;;;;;;4979833;28;20050;-87
2022/07/26 07:05:38;;;;;;;3.78;0.40;;;16.90;99.90;;;;;;4996628;28;20050;-90
2022/07/26 07:08:04;;;;;;;2.22;0.40;;;16.90;99.90;;;;;;4997717;28;20046;-90
2022/07/26 07:10:29;;;;;;;3.70;0.40;;;16.80;99.90;;;;;;4996588;28;20054;-91
2022/07/26 07:12:55;;;;;;;4.65;0.80;;;16.80;99.90;;;;;;4996833;28;20057;-87
2022/07/26 07:15:21;;;;;;;1.02;0.30;;;16.80;99.90;;;;;;4996864;28;20184;-87
2022/07/26 07:17:47;;;;;;;4.63;0.40;;;16.80;99.90;;;;;;4996907;28;20209;-87
2022/07/26 07:20:12;;;;;;;3.97;0.30;;;16.90;99.90;;;;;;4995621;28;20062;-86
2022/07/26 07:22:38;;;;;;;3.28;0.43;;;16.90;99.90;;;;;;4999832;28;20050;-91
2022/07/26 07:25:04;;;;;;;4.13;0.40;;;17.00;99.90;;;;;;5001223;28;20141;-88
2022/07/26 07:27:30;;;;;;;3.30;0.32;;;17.00;99.90;;;;;;4997622;28;20046;-89
2022/07/26 07:29:55;;;;;;;2.17;0.30;;;17.00;99.90;;;;;;5003058;28;20046;-87
2022/07/26 07:32:21;;;;;;;1.73;0.45;;;17.00;99.90;;;;;;5005982;28;20059;-86
2022/07/26 07:34:47;;;;;;;4.50;0.38;;;17.00;99.90;;;;;;5000702;28;20097;-82
2022/07/26 07:37:14;;;;;;;1.33;0.30;;;17.00;99.90;;;;;;5001398;28;20046;-84
2022/07/26 07:39:40;;;;;;;2.88;0.30;;;17.00;99.90;;;;;;5004638;28;20038;-84
2022/07/26 07:42:05;;;;;;;3.13;0.40;;;17.10;99.90;;;;;;5007949;28;20054;-86
2022/07/26 07:44:31;;;;;;;2.05;0.30;;;17.10;99.90;;;;;;5003604;28;20054;-89
2022/07/26 07:46:57;;;;;;;4.07;0.28;;;17.20;99.90;;;;;;4983936;28;20050;-84
2022/07/26 07:49:22;;;;;;;3.53;0.38;;;17.20;99.90;;;;;;4982401;28;20134;-85
2022/07/26 07:51:48;;;;;;;1.77;0.30;;;17.30;99.90;;;;;;4996558;28;20047;-84
2022/07/26 07:54:14;;;;;;;2.90;0.30;;;17.40;99.90;;;;;;4995272;28;20058;-86
2022/07/26 07:56:41;;;;;;;3.38;0.20;;;17.50;99.90;;;;;;4996282;28;20061;-81
2022/07/26 07:59:07;;;;;;;2.03;0.40;;;17.60;99.90;;;;;;4996261;28;20077;-87
2022/07/26 08:01:33;;;;;;;2.95;0.30;;;17.70;99.90;;;;;;4996163;28;20086;-85
2022/07/26 08:03:58;;;;;;;2.85;0.35;;;17.80;99.90;;;;;;4979468;28;20105;-81
2022/07/26 08:06:24;;;;;;;4.47;0.50;;;17.80;99.90;;;;;;4995641;28;20521;-81
2022/07/26 08:08:50;;;;;;;3.90;0.45;;;17.90;99.90;;;;;;4996476;28;20068;-81
2022/07/26 08:11:15;;;;;;;4.35;0.47;;;17.90;99.90;;;;;;4994551;28;20502;-83
2022/07/26 08:13:41;;;;;;;3.42;0.60;;;17.80;99.90;;;;;;4995485;28;20046;-78
2022/07/26 08:16:08;;;;;;;3.53;0.70;;;17.70;99.90;;;;;;4994896;28;20069;-77
2022/07/26 08:18:34;;;;;;;3.40;0.45;;;17.60;99.90;;;;;;4995254;28;20537;-76
2022/07/26 08:20:59;;;;;;;5.80;0.80;;;17.60;99.90;;;;;;4995956;28;20046;-77
2022/07/26 08:23:25;;;;;;;5.60;0.50;;;17.60;99.90;;;;;;4995323;28;20046;-74
2022/07/26 08:25:51;;;;;;;5.60;0.60;;;17.70;99.90;;;;;;4995010;28;20057;-77
2022/07/26 08:28:17;;;;;;;5.18;0.50;;;17.70;99.90;;;;;;4995225;28;20050;-79
2022/07/26 08:30:42;;;;;;;2.00;0.40;;;17.70;99.90;;;;;;4995770;28;20061;-77
2022/07/26 08:33:08;;;;;;;2.30;0.50;;;17.70;99.90;;;;;;4995703;28;20046;-79
2022/07/26 08:35:34;;;;;;;5.65;0.43;;;17.70;99.90;;;;;;4995156;28;20491;-77
2022/07/26 08:37:59;;;;;;;3.05;0.40;;;17.80;99.90;;;;;;4978041;28;20144;-76
2022/07/26 08:40:25;;;;;;;2.75;0.25;;;17.80;99.90;;;;;;4995605;28;20042;-74
2022/07/26 08:42:55;;;;;;;4.38;0.55;;;17.80;99.90;;;;;;4994073;28;20073;-73
2022/07/26 08:45:26;;;;;;;3.58;0.32;;;17.90;99.90;;;;;;4994918;28;20487;-79
2022/07/26 08:47:53;;;;;;;2.63;0.40;;;18.00;99.90;;;;;;4994963;28;20054;-77
2022/07/26 08:50:20;;;;;;;3.08;0.40;;;18.00;99.90;;;;;;4993384;28;20454;-77
2022/07/26 08:52:45;;;;;;;2.70;0.38;;;18.00;99.90;;;;;;4994281;28;20484;-79
2022/07/26 08:55:16;;;;;;;2.00;0.38;;;18.00;99.90;;;;;;4993030;28;20057;-81
2022/07/26 08:57:42;;;;;;;5.07;0.40;;;17.90;99.90;;;;;;4993089;28;20129;-74
2022/07/26 09:00:19;;;;;;;3.97;0.50;;;18.20;99.90;;;;;;4992946;28;20133;-79
2022/07/26 09:02:46;;;;;;;3.42;0.30;;;18.30;99.90;;;;;;4994179;28;20089;-83
2022/07/26 09:05:12;;;;;;;2.10;0.30;;;18.30;99.90;;;;;;4992436;28;20524;-79
2022/07/26 09:07:39;;;;;;;4.35;0.43;;;18.30;99.90;;;;;;4993982;28;20060;-78
2022/07/26 09:10:10;;;;;;;3.92;0.50;;;18.30;99.90;;;;;;4993858;28;20057;-76
2022/07/26 09:12:36;;;;;;;2.25;0.40;;;18.40;99.90;;;;;;4992433;28;20046;-74
2022/07/26 09:15:05;;;;;;;2.85;0.40;;;18.40;99.90;;;;;;4993509;28;20120;-79
2022/07/26 09:17:43;;;;;;;2.42;0.40;;;18.50;99.90;;;;;;4994132;28;20053;-76
2022/07/26 09:20:15;;;;;;;3.75;0.50;;;18.40;99.90;;;;;;4992336;28;20050;-75
2022/07/26 09:23:04;;;;;;;3.78;0.40;;;18.30;99.90;;;;;;4993833;28;20108;-77
2022/07/26 09:25:35;;;;;;;2.88;0.52;;;18.20;99.90;;;;;;4993957;28;20121;-80
2022/07/26 09:28:01;;;;;;;3.13;0.65;;;17.60;99.90;;;;;;4993362;28;20054;-78
2022/07/26 09:30:29;;;;;;;4.50;0.63;;;18.00;99.90;;;;;;4992100;28;20050;-78
2022/07/26 09:33:00;;;;;;;2.35;0.40;;;18.00;99.90;;;;;;4994046;28;20410;-80
2022/07/26 09:35:28;;;;;;;4.65;0.35;;;18.00;99.90;;;;;;4993954;28;20056;-78
2022/07/26 09:37:54;;;;;;;3.30;0.60;;;18.10;99.90;;;;;;4993704;28;20121;-76
2022/07/26 09:40:20;;;;;;;2.85;0.60;;;18.10;99.90;;;;;;4976145;28;20474;-78
2022/07/26 09:43:01;;;;;;;2.88;0.60;;;18.10;99.90;;;;;;4993375;28;20423;-78
2022/07/26 09:45:28;;;;;;;5.30;0.88;;;18.00;99.90;;;;;;4992873;28;20537;-77
2022/07/26 09:47:54;;;;;;;3.15;0.50;;;17.90;99.90;;;;;;4993021;28;20140;-76
2022/07/26 09:50:26;;;;;;;6.10;0.90;;;17.90;99.90;;;;;;4993984;28;20355;-74
2022/07/26 09:53:10;;;;;;;4.32;1.00;;;17.80;99.90;;;;;;4992746;28;20467;-76
2022/07/26 09:55:45;;;;;;;4.35;0.70;;;17.80;99.90;;;;;;4993877;28;20082;-77
2022/07/26 09:58:12;;;;;;;4.22;0.57;;;17.80;99.90;;;;;;4993241;28;20046;-75
2022/07/26 10:00:39;;;;;;;6.22;0.60;;;17.90;99.90;;;;;;4992030;28;20057;-78
2022/07/26 10:03:05;;;;;;;3.60;0.60;;;17.90;99.90;;;;;;4994994;28;20089;-75
2022/07/26 10:05:34;;;;;;;1.95;0.60;;;18.00;99.90;;;;;;4997679;28;20080;-75
2022/07/26 10:08:01;;;;;;;3.92;0.60;;;18.10;99.90;;;;;;4997308;28;20050;-76
2022/07/26 10:10:49;;;;;;;4.32;0.60;;;18.10;99.90;;;;;;4996793;28;20050;-75
2022/07/26 10:13:15;;;;;;;4.15;0.60;;;18.30;99.90;;;;;;4997427;28;20054;-77
2022/07/26 10:15:50;;;;;;;5.53;0.90;;;18.30;99.90;;;;;;4997825;28;20374;-81
2022/07/26 10:18:37;;;;;;;4.45;0.80;;;18.40;99.90;;;;;;4997211;28;20047;-82
2022/07/26 10:21:24;;;;;;;6.93;0.93;;;18.40;99.90;;;;;;4995852;28;20042;-77
2022/07/26 10:23:57;;;;;;;9.95;1.30;;;18.40;99.90;;;;;;4996089;28;20050;-79
2022/07/26 10:26:49;;;;;;;11.13;1.33;;;18.40;99.90;;;;;;4995348;28;20046;-75
2022/07/26 10:29:26;;;;;;;8.68;1.08;;;18.30;99.90;;;;;;4977304;28;20058;-76
2022/07/26 10:31:55;;;;;;;5.93;1.23;;;18.30;99.90;;;;;;4995436;28;20486;-75
2022/07/26 10:34:32;;;;;;;7.60;1.00;;;18.30;99.90;;;;;;4996853;28;20050;-78
2022/07/26 10:36:59;;;;;;;5.82;0.85;;;18.20;99.90;;;;;;4996647;28;20557;-75
2022/07/26 10:39:26;;;;;;;9.30;0.80;;;18.20;99.90;;;;;;4996899;28;20054;-74
2022/07/26 10:42:09;;;;;;;7.85;1.20;;;18.30;99.90;;;;;;4995558;28;20052;-77
2022/07/26 10:44:40;;;;;;;9.82;1.63;;;18.30;99.90;;;;;;4997187;28;20057;-75
2022/07/26 10:47:06;;;;;;;5.93;0.88;;;18.20;99.90;;;;;;4995843;28;20050;-74
2022/07/26 10:49:38;;;;;;;4.43;0.90;;;18.20;99.90;;;;;;4996223;28;20046;-75
2022/07/26 10:52:09;;;;;;;5.57;1.05;;;18.20;99.90;;;;;;4979663;28;20050;-73
2022/07/26 10:54:59;;;;;;;4.30;0.73;;;18.30;99.90;;;;;;4997176;28;20057;-75
2022/07/26 10:57:26;;;;;;;5.90;1.00;;;18.20;99.90;;;;;;4997084;28;20050;-75
2022/07/26 10:59:56;;;;;;;8.60;1.13;;;18.20;99.90;;;;;;4996439;28;20043;-75
2022/07/26 11:02:31;;;;;;;6.40;0.70;;;18.20;99.90;;;;;;4996637;28;20541;-74
2022/07/26 11:05:27;;;;;;;5.03;0.70;;;18.20;99.90;;;;;;4996907;28;20053;-73
2022/07/26 11:08:09;;;;;;;3.55;0.70;;;18.20;99.90;;;;;;4995088;28;20066;-75
2022/07/26 11:10:40;;;;;;;4.05;0.65;;;18.30;99.90;;;;;;4995915;28;20099;-75
2022/07/26 11:13:21;;;;;;;4.15;0.70;;;18.40;99.90;;;;;;4995704;28;20046;-74
2022/07/26 11:15:58;;;;;;;7.22;0.80;;;18.50;99.90;;;;;;4996334;28;20112;-74
2022/07/26 11:18:33;;;;;;;6.18;1.42;;;18.60;99.90;;;;;;4995784;28;20212;-74
2022/07/26 11:21:16;;;;;;;2.72;0.70;;;18.60;99.90;;;;;;4996099;28;20042;-76
2022/07/26 11:23:44;;;;;;;6.20;0.80;;;19.10;99.90;;;;;;4996043;28;20081;-75
2022/07/26 11:26:16;;;;;;;4.97;0.60;;;18.80;99.90;;;;;;4996614;28;20069;-75
2022/07/26 11:28:48;;;;;;;4.05;0.52;;;18.80;99.90;;;;;;4996103;28;20098;-74
2022/07/26 11:31:15;;;;;;;3.80;0.60;;;18.90;99.90;;;;;;4995923;28;20058;-75
2022/07/26 11:33:44;;;;;;;3.75;0.70;;;18.80;99.90;;;;;;4994847;28;20046;-70
2022/07/26 11:36:10;;;;;;;6.15;0.75;;;18.80;99.90;;;;;;4994683;28;20125;-74
2022/07/26 11:38:53;;;;;;;4.60;0.80;;;18.80;99.90;;;;;;4995402;28;20093;-74
2022/07/26 11:41:20;;;;;;;4.55;0.60;;;18.70;99.90;;;;;;4995701;28;20446;-75
2022/07/26 11:43:47;;;;;;;4.35;0.60;;;18.70;99.90;;;;;;4995896;28;20390;-74
2022/07/26 11:46:14;;;;;;;4.47;0.50;;;18.70;99.90;;;;;;4995591;28;20451;-75
2022/07/26 11:48:45;;;;;;;5.78;0.93;;;18.80;99.90;;;;;;4994414;28;20115;-75
2022/07/26 11:51:12;;;;;;;2.72;0.55;;;18.80;99.90;;;;;;4995014;28;20097;-73
2022/07/26 11:53:38;;;;;;;4.80;0.50;;;18.80;99.90;;;;;;4995295;28;20058;-73
2022/07/26 11:56:11;;;;;;;2.05;0.40;;;18.80;99.90;;;;;;4994885;28;20050;-74
2022/07/26 11:58:39;;;;;;;1.85;0.40;;;18.80;99.90;;;;;;4995504;28;20434;-74
2022/07/26 12:01:07;;;;;;;3.10;0.60;;;18.80;99.90;;;;;;4995283;28;20053;-77
2022/07/26 12:03:34;;;;;;;4.53;0.65;;;18.80;99.90;;;;;;4995188;28;20125;-77
2022/07/26 12:06:06;;;;;;;4.25;0.43;;;18.80;99.90;;;;;;4993922;28;20073;-75
2022/07/26 12:08:58;;;;;;;2.90;0.32;;;18.80;99.90;;;;;;4994860;28;20081;-75
2022/07/26 12:11:35;;;;;;;1.85;0.40;;;18.70;99.90;;;;;;4991855;28;20097;-75
2022/07/26 12:14:02;;;;;;;1.23;0.30;;;18.80;99.90;;;;;;4994356;28;20050;-75
2022/07/26 12:16:38;;;;;;;2.90;0.32;;;18.80;99.90;;;;;;4994673;28;20570;-74
2022/07/26 12:19:17;;;;;;;1.70;0.40;;;18.90;99.90;;;;;;4994297;28;20050;-74
2022/07/26 12:21:48;;;;;;;2.67;0.50;;;18.80;99.90;;;;;;4994678;28;20050;-74
2022/07/26 12:24:40;;;;;;;2.22;0.30;;;18.80;99.90;;;;;;4994110;28;20057;-75
2022/07/26 12:27:11;;;;;;;3.42;0.70;;;18.80;99.90;;;;;;4995451;28;20057;-74
2022/07/26 12:29:41;;;;;;;3.65;0.43;;;18.80;99.90;;;;;;4994413;28;20061;-81
2022/07/26 12:32:10;;;;;;;2.42;0.35;;;18.90;99.90;;;;;;4993550;28;20062;-74
2022/07/26 12:34:37;;;;;;;3.25;0.45;;;18.90;99.90;;;;;;4994186;28;20517;-73
2022/07/26 12:37:11;;;;;;;2.17;0.30;;;18.90;99.90;;;;;;4994309;28;20158;-75
2022/07/26 12:39:38;;;;;;;2.15;0.30;;;18.90;99.90;;;;;;4993718;28;20112;-74
2022/07/26 12:42:24;;;;;;;2.53;0.55;;;19.00;99.90;;;;;;4993673;28;20050;-75
2022/07/26 12:44:50;;;;;;;4.35;0.50;;;19.00;99.90;;;;;;4994936;28;20050;-77
2022/07/26 12:47:15;;;;;;;2.25;0.40;;;19.00;99.90;;;;;;4994210;28;20088;-74
2022/07/26 12:49:45;;;;;;;2.60;0.35;;;19.00;99.90;;;;;;4994432;28;20149;-74
2022/07/26 12:52:12;;;;;;;2.03;0.40;;;19.00;99.90;;;;;;4994037;28;20050;-74